Southgate, MI (48195)

10:45 PM EDT del 24 Ottobre 2014 (GMT -0400)
Castle and Burns St. | Change Station
CLOSE
Current Station
Stazione meteo personale
Location: Southgate, MI
Altitudine: 580 ft
Stazioni meteo nelle vicinanze

Alt. 580 ft 42.21 °N, 83.19 °W | Updated 11 seconds ago

Coperto
Coperto
55.6 °F
Sembra 55.6 °F
N
0.0
Vento Variabile Vento da SSO
Gusts 0.0 mph

Oggi
Massima -- | Minima -- °F
--% Possibilità di precip.
Ieri
Massima -- | Minima -- °F
Precip. -- in
7:56 AM 6:37 PM
Luna nuova, 2% visible
Pressione 30.00 in
Visibilità 9.0 miglia
Nuvole Coperto 4000 ft
Punto di rugiada 48 °F
Umidità 77%
Piovosità 0.00 in
Spessore del manto nevoso Non disponibile.
Raggi UV 0.0 fuori da 12
Polline .10 fuori da 12
Ozono Buono
PM2.5 Moderato
Flu Activity Sporadic
METAR KDTW 250153Z 20008KT 9SM OVC040 13/08 A2999 RMK AO2 SLP157 T01330078

More Conditions Fewer Conditions

Pressione 30.00 in
Visibilità 9.0 miglia
Nuvole Coperto 4000 ft
Punto di rugiada 48 °F
Umidità 77%
Piovosità 0.00 in
Spessore del manto nevoso Non disponibile.
Raggi UV 0.0 fuori da 12
Polline .10 fuori da 12
Ozono Buono
PM2.5 Moderato
Flu Activity Sporadic
METAR KDTW 250153Z 20008KT 9SM OVC040 13/08 A2999 RMK AO2 SLP157 T01330078

More Conditions Fewer Conditions

10-Day Weather Forecast

Almanac

Astronomia

Oct. 24, 2014 Alba Tramonto
Ora attuale 07:56 EDT 18:37 EDT
Crepuscolo civile 07:27 EDT 19:05 EDT
Crepuscolo nautico 06:54 EDT 19:38 EDT
Crepuscolo astronomico 06:22 EDT 20:11 EDT
Luna 08:34 EDT (10/24) 19:15 EDT (10/24)
Estensione della luce visibile 11h 38m
Lunghezza del giorno
10h 41m
Tomorrow will be 2m 39s shorter.
Luna nuova, 2% of the Moon is Illuminated
Oggi
Luna nuova
Ott 30
Primo quarto
Nov 6
Luna piena
Nov 14
Ultimo quarto
Nov 22
Nuovo

Gli estremi di oggi

State Highs State Lows

Community

WunderPhotos

Upload Photos

1,764,760 foto caricate!

WunderBlogs® & News

Nearby

Qualità dell'aria

  Qualità dell'aria Indice AQ Inquinante
Ieri Buono
PM10
Ieri Buono
OZONE
Attuale Moderato
PM2.5
Attuale Buono
OZONE
Venerdì Moderato
PM2.5
Sabato Buono
PM2.5
Domenica Buono
PM2.5
Lunedì Moderato
PM2.5

Profondità neve

Stazione Profondità Altitudine
Non sono state evidenziate nuove nevicate

Attività sismica

Città  Distanza Mag. Data & Ora
Non sono state riportate attività sismiche nelle vicinanze.
Minimo Magnitudo Mostrato è 2.5.

Temperature delle acque costiere

Località Temperatura
Marblehead, OH 53.1 °F

Stazioni meteo nelle vicinanze